Time;durP1;ratioP1;P1;durP2;ratioP2;P2;SDS_P1;SDS_P2;PMS_P1;PMS_P2;Temp;Humidity;BMP_temperature;BMP_pressure;BME280_temperature;BME280_humidity;BME280_pressure;Samples;Min_cycle;Max_cycle;Signal;HPM_P1;HPM_P2
2021/06/09 00:01:43;;;;;;;17.73;13.68;;;15.70;91.20;;;;;;4953622;28;20348;-82
2021/06/09 00:04:09;;;;;;;17.48;14.05;;;15.70;91.40;;;;;;4939766;28;20054;-85
2021/06/09 00:06:36;;;;;;;21.60;15.13;;;15.60;91.50;;;;;;4933588;29;20102;-81
2021/06/09 00:09:03;;;;;;;17.42;13.98;;;15.60;91.50;;;;;;4951153;28;20046;-84
2021/06/09 00:11:30;;;;;;;18.35;13.68;;;15.60;91.60;;;;;;4946095;28;20039;-85
2021/06/09 00:13:56;;;;;;;17.75;14.65;;;15.60;91.60;;;;;;4938602;28;20055;-83
2021/06/09 00:16:22;;;;;;;18.42;13.75;;;15.60;91.90;;;;;;4935962;28;20494;-81
2021/06/09 00:18:49;;;;;;;18.10;13.82;;;15.50;91.80;;;;;;4939830;28;20099;-82
2021/06/09 00:21:17;;;;;;;18.67;14.60;;;15.50;91.90;;;;;;4935790;28;20418;-83
2021/06/09 00:23:44;;;;;;;18.77;14.75;;;15.50;92.00;;;;;;4932737;28;20032;-82
2021/06/09 00:26:10;;;;;;;19.05;14.27;;;15.50;91.90;;;;;;4940715;28;20058;-82
2021/06/09 00:28:37;;;;;;;21.48;15.40;;;15.40;91.90;;;;;;4922505;28;20043;-82
2021/06/09 00:31:05;;;;;;;21.27;15.77;;;15.40;91.90;;;;;;4943011;28;20048;-82
2021/06/09 00:33:31;;;;;;;21.95;16.58;;;15.40;92.00;;;;;;4920057;29;20055;-82
2021/06/09 00:35:58;;;;;;;17.92;15.05;;;15.40;92.30;;;;;;4938275;28;20039;-82
2021/06/09 00:38:28;;;;;;;19.23;15.98;;;15.30;92.30;;;;;;4919784;29;20055;-82
2021/06/09 00:40:58;;;;;;;22.30;16.83;;;15.30;92.40;;;;;;4932471;28;20477;-81
2021/06/09 00:43:27;;;;;;;23.00;17.17;;;15.30;92.30;;;;;;4940834;28;20096;-81
2021/06/09 00:45:55;;;;;;;21.98;17.77;;;15.30;92.40;;;;;;4937100;28;20046;-82
2021/06/09 00:48:28;;;;;;;24.67;18.20;;;15.20;92.50;;;;;;4938653;28;20043;-82
2021/06/09 00:50:55;;;;;;;;;;;15.20;92.70;;;;;;4937498;28;20047;-81
2021/06/09 00:53:28;;;;;;;24.73;17.95;;;15.10;93.20;;;;;;4942319;28;19918;-81
2021/06/09 00:55:56;;;;;;;22.40;17.80;;;15.10;92.80;;;;;;4939273;28;20047;-82
2021/06/09 00:58:23;;;;;;;26.35;18.27;;;15.10;92.70;;;;;;4939931;28;20099;-81
2021/06/09 01:00:49;;;;;;;28.88;18.63;;;15.00;93.00;;;;;;4921344;29;20031;-81
2021/06/09 01:03:16;;;;;;;27.45;18.20;;;15.00;93.00;;;;;;4926930;29;20054;-81
2021/06/09 01:05:41;;;;;;;23.85;18.38;;;15.00;93.20;;;;;;4924880;29;20069;-82
2021/06/09 01:08:27;;;;;;;29.38;19.38;;;15.00;93.20;;;;;;4912621;29;20180;-81
2021/06/09 01:10:55;;;;;;;23.23;18.23;;;15.00;93.20;;;;;;4920252;29;20828;-82
2021/06/09 01:13:26;;;;;;;24.42;19.23;;;14.90;93.30;;;;;;4933322;28;20138;-82
2021/06/09 01:15:54;;;;;;;22.92;18.98;;;14.90;93.20;;;;;;4925520;28;20504;-82
2021/06/09 01:18:20;;;;;;;23.98;18.77;;;14.90;93.10;;;;;;4924797;29;20039;-81
2021/06/09 01:20:46;;;;;;;27.73;19.20;;;14.90;93.10;;;;;;4947055;28;20035;-82
2021/06/09 01:23:16;;;;;;;24.08;19.00;;;14.90;93.20;;;;;;4951445;28;20043;-81
2021/06/09 01:25:43;;;;;;;23.65;19.42;;;14.90;93.10;;;;;;4951890;28;20039;-81
2021/06/09 01:28:09;;;;;;;26.40;19.73;;;15.00;93.50;;;;;;4950666;28;20086;-82
2021/06/09 01:30:36;;;;;;;26.05;18.98;;;14.90;93.20;;;;;;4950762;28;20062;-81
2021/06/09 01:33:06;;;;;;;31.05;21.15;;;14.90;93.30;;;;;;4940869;28;20435;-82
2021/06/09 01:35:32;;;;;;;28.75;20.65;;;14.90;93.40;;;;;;4935169;28;20035;-82
2021/06/09 01:37:59;;;;;;;25.90;20.23;;;14.90;93.30;;;;;;4924002;28;20051;-81
2021/06/09 01:40:26;;;;;;;27.05;19.75;;;14.90;93.40;;;;;;4938782;28;20054;-81
2021/06/09 01:42:54;;;;;;;26.83;20.33;;;14.90;93.40;;;;;;4940773;28;20438;-82
2021/06/09 01:45:38;;;;;;;24.80;19.98;;;14.80;93.40;;;;;;4935658;29;20572;-82
2021/06/09 01:48:06;;;;;;;28.42;20.75;;;14.80;93.50;;;;;;4920828;28;20123;-82
2021/06/09 01:50:33;;;;;;;28.17;20.55;;;14.80;93.50;;;;;;4935113;28;20090;-82
2021/06/09 01:53:03;;;;;;;27.25;21.23;;;14.80;93.50;;;;;;4933172;28;20035;-82
2021/06/09 01:55:31;;;;;;;29.27;20.63;;;14.70;93.50;;;;;;4919573;29;20059;-81
2021/06/09 01:57:57;;;;;;;30.92;20.65;;;14.80;93.50;;;;;;4930916;28;20039;-82
2021/06/09 02:00:28;;;;;;;25.15;20.25;;;14.70;93.60;;;;;;4917002;29;20031;-81
2021/06/09 02:03:00;;;;;;;28.17;21.25;;;14.70;93.60;;;;;;4933294;29;20040;-82
2021/06/09 02:05:31;;;;;;;28.30;20.33;;;14.70;93.60;;;;;;4939140;28;20047;-82
2021/06/09 02:08:00;;;;;;;31.13;21.20;;;14.60;93.70;;;;;;4936656;28;20039;-82
2021/06/09 02:10:27;;;;;;;28.13;20.02;;;14.60;93.70;;;;;;4935059;28;20708;-82
2021/06/09 02:12:57;;;;;;;30.25;21.65;;;14.60;93.80;;;;;;4920393;29;20430;-82
2021/06/09 02:15:24;;;;;;;34.03;22.63;;;14.60;93.80;;;;;;4937043;28;20046;-81
2021/06/09 02:18:09;;;;;;;31.55;23.45;;;14.60;93.90;;;;;;4933892;28;20039;-81
2021/06/09 02:20:51;;;;;;;30.90;22.25;;;14.60;93.90;;;;;;4934199;28;20039;-81
2021/06/09 02:23:29;;;;;;;30.10;21.75;;;14.60;94.00;;;;;;4939210;28;20122;-81
2021/06/09 02:25:58;;;;;;;30.52;23.35;;;14.50;93.90;;;;;;4936948;28;20043;-81
2021/06/09 02:28:30;;;;;;;29.77;23.67;;;14.50;94.00;;;;;;4930561;28;20569;-81
2021/06/09 02:30:56;;;;;;;31.02;23.60;;;14.50;94.00;;;;;;4938633;28;20035;-81
2021/06/09 02:33:43;;;;;;;38.08;22.92;;;14.50;94.00;;;;;;4906373;29;20405;-81
2021/06/09 02:36:09;;;;;;;28.48;22.67;;;14.50;94.00;;;;;;4917487;29;20143;-82
2021/06/09 02:38:37;;;;;;;36.97;23.60;;;14.40;93.90;;;;;;4908826;29;20031;-82
2021/06/09 02:41:03;;;;;;;32.03;23.13;;;14.40;94.10;;;;;;4943181;28;20496;-82
2021/06/09 02:43:32;;;;;;;32.40;23.45;;;14.40;94.10;;;;;;4934601;28;20387;-81
2021/06/09 02:46:29;;;;;;;33.42;24.58;;;14.40;94.10;;;;;;4934745;28;20039;-83
2021/06/09 02:49:18;;;;;;;31.75;23.00;;;14.40;94.30;;;;;;4917594;28;20563;-81
2021/06/09 02:51:50;;;;;;;36.97;24.83;;;14.30;94.20;;;;;;4947614;28;20043;-81
2021/06/09 02:54:33;;;;;;;37.53;25.23;;;14.30;94.20;;;;;;4940172;28;20039;-82
2021/06/09 02:57:12;;;;;;;32.25;22.88;;;14.20;94.30;;;;;;4929942;28;20523;-81
2021/06/09 03:00:02;;;;;;;30.13;23.90;;;14.20;94.40;;;;;;4933133;28;20680;-82
2021/06/09 03:02:52;;;;;;;30.35;23.70;;;14.20;94.50;;;;;;4921583;29;20056;-82
2021/06/09 03:05:21;;;;;;;34.60;24.45;;;14.20;94.50;;;;;;4919693;29;20047;-81
2021/06/09 03:08:28;;;;;;;34.55;24.63;;;14.20;94.40;;;;;;4935333;28;20185;-81
2021/06/09 03:11:28;;;;;;;30.33;23.33;;;14.20;94.40;;;;;;4901799;29;20295;-81
2021/06/09 03:14:17;;;;;;;26.63;21.88;;;14.20;94.40;;;;;;4938629;28;20597;-81
2021/06/09 03:16:53;;;;;;;27.17;22.38;;;14.10;94.30;;;;;;4939389;28;20035;-82
2021/06/09 03:19:39;;;;;;;33.13;21.70;;;14.10;94.40;;;;;;4948752;28;20031;-81
2021/06/09 03:22:38;;;;;;;28.55;22.73;;;14.10;94.50;;;;;;4922201;29;20421;-81
2021/06/09 03:25:06;;;;;;;33.10;23.10;;;14.10;94.50;;;;;;4941664;28;20513;-82
2021/06/09 03:27:55;;;;;;;31.30;23.65;;;14.10;94.50;;;;;;4932930;29;20110;-82
2021/06/09 03:30:23;;;;;;;29.50;22.00;;;14.10;94.40;;;;;;4935638;28;20028;-82
2021/06/09 03:33:07;;;;;;;29.60;21.75;;;14.10;94.50;;;;;;4942568;28;20039;-81
2021/06/09 03:35:53;;;;;;;30.95;22.73;;;14.10;94.60;;;;;;4920318;29;20039;-81
2021/06/09 03:38:33;;;;;;;29.52;21.63;;;14.10;94.60;;;;;;4938376;28;20031;-81
2021/06/09 03:41:07;;;;;;;31.15;23.23;;;14.10;94.60;;;;;;4940873;28;20031;-82
2021/06/09 03:43:36;;;;;;;31.25;23.05;;;14.10;94.60;;;;;;4939625;28;20580;-81
2021/06/09 03:46:07;;;;;;;30.67;23.90;;;14.10;94.60;;;;;;4937885;28;20039;-82
2021/06/09 03:48:38;;;;;;;33.08;23.35;;;14.10;94.60;;;;;;4933981;28;20138;-81
2021/06/09 03:51:05;;;;;;;32.13;22.77;;;14.10;94.70;;;;;;4935719;28;20075;-81
2021/06/09 03:53:54;;;;;;;30.73;22.27;;;14.10;94.70;;;;;;4937452;28;20043;-81
2021/06/09 03:56:33;;;;;;;29.92;22.35;;;14.10;94.70;;;;;;4937067;29;20066;-81
2021/06/09 03:59:01;;;;;;;28.23;21.52;;;14.10;94.70;;;;;;4936337;28;20364;-82
2021/06/09 04:01:35;;;;;;;31.70;22.38;;;14.10;94.80;;;;;;4938103;28;20043;-82
2021/06/09 04:04:04;;;;;;;30.45;22.08;;;14.20;94.80;;;;;;4940916;28;20031;-81
2021/06/09 04:06:32;;;;;;;28.98;22.80;;;14.20;94.70;;;;;;4935847;28;20042;-82
2021/06/09 04:09:01;;;;;;;29.42;22.40;;;14.20;94.70;;;;;;4918824;28;20028;-82
2021/06/09 04:11:28;;;;;;;28.33;21.95;;;14.30;94.70;;;;;;4935428;28;20126;-83
2021/06/09 04:13:56;;;;;;;30.90;21.95;;;14.30;94.70;;;;;;4936358;28;20040;-81
2021/06/09 04:16:26;;;;;;;27.27;20.95;;;14.30;94.60;;;;;;4940921;28;20035;-82
2021/06/09 04:18:53;;;;;;;29.10;21.55;;;14.40;94.70;;;;;;4932412;28;20112;-82
2021/06/09 04:21:20;;;;;;;26.25;21.10;;;14.40;94.60;;;;;;4926308;29;20041;-81
2021/06/09 04:23:46;;;;;;;27.55;20.20;;;14.40;94.60;;;;;;4932095;28;20122;-82
2021/06/09 04:26:16;;;;;;;24.95;20.63;;;14.50;94.90;;;;;;4931686;28;20086;-82
2021/06/09 04:28:46;;;;;;;26.67;21.05;;;14.50;94.60;;;;;;4936675;28;20036;-81
2021/06/09 04:31:14;;;;;;;23.85;19.27;;;14.50;94.50;;;;;;4921683;28;20039;-81
2021/06/09 04:33:40;;;;;;;26.85;19.92;;;14.60;94.50;;;;;;4935669;28;20046;-81
2021/06/09 04:36:11;;;;;;;24.38;19.88;;;14.60;94.50;;;;;;4938303;28;20486;-82
2021/06/09 04:38:38;;;;;;;27.38;20.73;;;14.70;94.50;;;;;;4936533;28;20039;-81
2021/06/09 04:41:04;;;;;;;24.27;19.92;;;14.70;94.50;;;;;;4932037;28;20447;-81
2021/06/09 04:43:30;;;;;;;25.80;20.88;;;14.80;94.50;;;;;;4924868;29;20043;-82
2021/06/09 04:45:56;;;;;;;26.88;20.98;;;14.80;94.50;;;;;;4921668;28;20527;-81
2021/06/09 04:48:26;;;;;;;24.85;19.55;;;14.90;94.40;;;;;;4932075;28;20039;-82
2021/06/09 04:50:52;;;;;;;28.98;20.40;;;14.90;94.40;;;;;;4937990;28;20110;-83
2021/06/09 04:53:20;;;;;;;30.55;21.52;;;15.00;94.40;;;;;;4940841;28;20518;-82
2021/06/09 04:55:52;;;;;;;28.13;21.73;;;15.10;94.60;;;;;;4929746;28;20039;-82
2021/06/09 04:58:20;;;;;;;27.45;21.38;;;15.10;94.20;;;;;;4943045;29;20038;-82
2021/06/09 05:00:48;;;;;;;25.45;20.17;;;15.10;94.10;;;;;;4942749;29;20423;-82
2021/06/09 05:03:15;;;;;;;27.88;21.20;;;15.20;94.00;;;;;;4931439;28;20287;-82
2021/06/09 05:05:42;;;;;;;24.30;20.55;;;15.30;93.90;;;;;;4923270;29;20046;-82
2021/06/09 05:08:08;;;;;;;25.27;20.55;;;15.30;93.80;;;;;;4952685;28;20066;-83
2021/06/09 05:10:37;;;;;;;26.52;20.85;;;15.40;93.80;;;;;;4945301;28;20031;-82
2021/06/09 05:13:16;;;;;;;23.83;20.80;;;15.50;93.70;;;;;;4943573;28;20087;-82
2021/06/09 05:15:47;;;;;;;25.30;20.33;;;15.50;93.50;;;;;;4940031;28;20035;-82
2021/06/09 05:18:22;;;;;;;26.02;20.73;;;15.60;93.70;;;;;;4931558;28;20040;-84
2021/06/09 05:20:50;;;;;;;22.38;19.20;;;15.70;93.10;;;;;;4955428;28;20039;-82
2021/06/09 05:23:19;;;;;;;24.77;18.80;;;15.80;93.00;;;;;;4934135;28;20077;-83
2021/06/09 05:25:54;;;;;;;23.17;18.77;;;15.80;92.90;;;;;;4940294;29;20039;-82
2021/06/09 05:28:22;;;;;;;25.10;19.33;;;15.90;92.80;;;;;;4917132;29;20641;-84
2021/06/09 05:30:52;;;;;;;24.40;19.05;;;16.00;92.70;;;;;;4934842;28;20031;-83
2021/06/09 05:33:21;;;;;;;23.17;17.23;;;16.00;92.70;;;;;;4939367;28;20502;-83
2021/06/09 05:35:51;;;;;;;22.13;18.05;;;16.10;92.70;;;;;;4935238;28;20031;-82
2021/06/09 05:38:19;;;;;;;22.65;18.30;;;16.20;92.60;;;;;;4918694;29;20043;-82
2021/06/09 05:40:47;;;;;;;21.88;17.35;;;16.30;92.60;;;;;;4920459;29;20051;-82
2021/06/09 05:43:18;;;;;;;23.10;17.00;;;16.30;92.60;;;;;;4924562;28;20034;-82
2021/06/09 05:45:47;;;;;;;21.88;16.52;;;16.40;92.50;;;;;;4929428;28;20407;-82
2021/06/09 05:48:13;;;;;;;20.50;17.63;;;16.40;92.40;;;;;;4937082;28;20051;-84
2021/06/09 05:50:38;;;;;;;22.88;16.50;;;16.50;92.30;;;;;;4941012;28;20038;-82
2021/06/09 05:53:04;;;;;;;18.30;15.63;;;16.60;92.30;;;;;;4922377;29;20589;-82
2021/06/09 05:55:34;;;;;;;23.00;16.50;;;16.60;92.20;;;;;;4915993;29;20033;-83
2021/06/09 05:58:03;;;;;;;20.55;16.33;;;16.70;92.20;;;;;;4948148;28;20031;-82
2021/06/09 06:00:33;;;;;;;17.77;15.33;;;16.80;92.10;;;;;;4936932;28;20034;-83
2021/06/09 06:03:03;;;;;;;18.92;16.25;;;16.90;92.00;;;;;;4922525;29;20122;-82
2021/06/09 06:05:34;;;;;;;19.05;15.35;;;17.00;92.20;;;;;;4927419;28;20035;-82
2021/06/09 06:08:01;;;;;;;17.33;14.70;;;17.10;91.90;;;;;;4935089;28;20039;-82
2021/06/09 06:10:28;;;;;;;16.02;12.88;;;17.20;91.90;;;;;;4921524;28;20046;-82
2021/06/09 06:12:57;;;;;;;15.77;12.13;;;17.30;91.70;;;;;;4936641;28;20052;-82
2021/06/09 06:15:26;;;;;;;16.58;11.85;;;17.40;91.60;;;;;;4949958;28;20043;-84
2021/06/09 06:17:52;;;;;;;14.60;11.90;;;17.50;91.40;;;;;;4928450;29;20032;-83
2021/06/09 06:20:25;;;;;;;13.18;11.75;;;17.60;91.30;;;;;;4912500;29;20038;-83
2021/06/09 06:22:53;;;;;;;12.55;9.07;;;17.80;91.40;;;;;;4939443;28;20054;-84
2021/06/09 06:25:23;;;;;;;10.40;8.15;;;17.90;91.10;;;;;;4944876;28;20039;-82
2021/06/09 06:27:51;;;;;;;9.63;8.07;;;18.00;90.60;;;;;;4948522;28;20042;-83
2021/06/09 06:30:19;;;;;;;9.02;6.90;;;18.10;90.20;;;;;;4948290;29;20043;-82
2021/06/09 06:32:47;;;;;;;8.40;6.78;;;18.20;89.70;;;;;;4944898;28;20182;-83
2021/06/09 06:35:17;;;;;;;11.73;7.00;;;18.30;89.00;;;;;;4941367;28;20034;-83
2021/06/09 06:37:43;;;;;;;9.60;7.35;;;18.40;88.90;;;;;;4931576;28;20047;-84
2021/06/09 06:40:11;;;;;;;9.38;7.15;;;18.50;88.50;;;;;;4920208;28;20130;-82
2021/06/09 06:42:37;;;;;;;10.70;7.38;;;18.60;88.40;;;;;;4899863;29;20051;-82
2021/06/09 06:45:04;;;;;;;8.98;6.50;;;18.80;87.30;;;;;;4926596;28;20502;-83
2021/06/09 06:47:31;;;;;;;11.73;7.10;;;18.90;87.40;;;;;;4935890;28;20491;-81
2021/06/09 06:49:58;;;;;;;7.55;6.45;;;19.00;86.90;;;;;;4909349;29;20114;-82
2021/06/09 06:52:29;;;;;;;8.85;6.10;;;19.10;86.80;;;;;;4939911;28;20570;-82
2021/06/09 06:55:00;;;;;;;7.18;5.45;;;19.30;86.10;;;;;;4936766;28;20042;-82
2021/06/09 06:57:31;;;;;;;7.00;5.53;;;19.40;85.70;;;;;;4940604;29;20035;-82
2021/06/09 07:00:09;;;;;;;6.75;5.50;;;19.50;85.60;;;;;;4935524;29;20039;-81
2021/06/09 07:02:36;;;;;;;5.10;4.57;;;19.70;84.60;;;;;;4952707;29;20121;-82
2021/06/09 07:05:05;;;;;;;6.63;4.88;;;19.80;84.10;;;;;;4933973;29;20303;-82
2021/06/09 07:07:36;;;;;;;8.32;6.00;;;19.90;84.30;;;;;;4952313;29;20031;-81
2021/06/09 07:10:06;;;;;;;8.55;5.97;;;20.00;83.30;;;;;;4952181;29;20043;-81
2021/06/09 07:12:35;;;;;;;6.90;6.20;;;20.10;82.70;;;;;;4956291;28;20039;-82
2021/06/09 07:15:14;;;;;;;7.10;5.78;;;20.20;82.10;;;;;;4939329;29;20058;-82
2021/06/09 07:17:43;;;;;;;8.40;5.25;;;20.30;82.40;;;;;;4950775;29;20564;-81
2021/06/09 07:20:19;;;;;;;9.15;6.20;;;20.40;82.90;;;;;;4953772;29;20410;-81
2021/06/09 07:22:46;;;;;;;8.38;6.10;;;20.50;83.00;;;;;;4951391;29;20043;-81
2021/06/09 07:25:12;;;;;;;9.48;6.55;;;20.60;82.10;;;;;;4932620;29;20039;-80
2021/06/09 07:28:02;;;;;;;9.02;7.45;;;20.70;81.40;;;;;;4951993;29;20039;-81
2021/06/09 07:30:33;;;;;;;7.53;6.70;;;20.80;80.90;;;;;;4942714;28;20111;-81
2021/06/09 07:33:02;;;;;;;8.32;6.75;;;20.90;80.20;;;;;;4942282;28;20221;-81
2021/06/09 07:35:28;;;;;;;9.38;7.45;;;21.00;79.80;;;;;;4934504;28;20059;-81
2021/06/09 07:38:01;;;;;;;7.82;6.53;;;21.10;78.80;;;;;;4929715;28;20067;-81
2021/06/09 07:40:31;;;;;;;9.18;7.20;;;21.20;78.80;;;;;;4940253;28;20035;-81
2021/06/09 07:43:04;;;;;;;9.20;7.15;;;21.20;78.60;;;;;;4926186;28;20302;-81
2021/06/09 07:45:32;;;;;;;9.40;7.45;;;21.30;78.20;;;;;;4922426;29;20051;-81
2021/06/09 07:48:00;;;;;;;9.30;7.57;;;21.40;77.90;;;;;;4933944;28;20264;-81
2021/06/09 07:50:41;;;;;;;13.15;7.60;;;21.40;77.30;;;;;;4908176;29;20596;-81
2021/06/09 07:53:10;;;;;;;12.82;7.47;;;21.50;76.60;;;;;;4938369;28;20046;-81
2021/06/09 07:55:41;;;;;;;8.85;7.22;;;21.60;76.30;;;;;;4924839;29;20525;-81
2021/06/09 07:58:08;;;;;;;8.85;7.25;;;21.70;76.00;;;;;;4946357;28;20035;-81
2021/06/09 08:00:38;;;;;;;10.65;7.40;;;21.70;76.10;;;;;;4916166;29;20059;-81
2021/06/09 08:03:04;;;;;;;9.23;7.75;;;21.70;75.70;;;;;;4934207;28;20042;-81
2021/06/09 08:05:31;;;;;;;10.98;7.82;;;21.80;76.50;;;;;;4930384;29;20344;-81
2021/06/09 08:07:57;;;;;;;9.52;7.57;;;21.90;75.30;;;;;;4938202;28;20035;-81
2021/06/09 08:10:24;;;;;;;11.10;7.47;;;21.90;75.50;;;;;;4926512;28;20066;-81
2021/06/09 08:12:56;;;;;;;12.30;8.50;;;22.00;75.00;;;;;;4937198;28;20135;-81
2021/06/09 08:15:31;;;;;;;9.25;7.35;;;22.10;74.70;;;;;;4931635;28;20122;-81
2021/06/09 08:17:57;;;;;;;11.02;9.68;;;22.20;75.10;;;;;;4935237;28;20075;-82
2021/06/09 08:20:24;;;;;;;15.93;12.43;;;22.30;75.20;;;;;;4912169;28;20066;-81
2021/06/09 08:22:50;;;;;;;13.25;11.30;;;22.40;75.20;;;;;;4918532;28;20051;-81
2021/06/09 08:25:23;;;;;;;14.00;12.18;;;22.40;75.20;;;;;;4940918;28;20114;-82
2021/06/09 08:27:50;;;;;;;12.45;11.18;;;22.50;74.50;;;;;;4924727;29;20031;-81
2021/06/09 08:30:17;;;;;;;15.02;11.85;;;22.50;73.70;;;;;;4938226;28;20027;-80
2021/06/09 08:32:44;;;;;;;13.25;10.93;;;22.50;73.40;;;;;;4948822;28;20084;-81
2021/06/09 08:35:11;;;;;;;16.98;12.35;;;22.50;73.70;;;;;;4943839;28;20031;-81
2021/06/09 08:37:39;;;;;;;17.33;12.30;;;22.50;72.80;;;;;;4907799;29;20086;-81
2021/06/09 08:40:08;;;;;;;14.55;12.32;;;22.60;72.80;;;;;;4911407;29;20035;-82
2021/06/09 08:42:37;;;;;;;14.27;12.60;;;22.60;72.80;;;;;;4931081;28;20043;-81
2021/06/09 08:45:08;;;;;;;18.17;11.95;;;22.60;72.70;;;;;;4936471;28;20273;-81
2021/06/09 08:47:36;;;;;;;12.43;10.90;;;22.60;72.50;;;;;;4940329;28;20474;-81
2021/06/09 08:50:12;;;;;;;13.80;12.00;;;22.60;72.60;;;;;;4940497;28;20031;-81
2021/06/09 08:52:47;;;;;;;15.48;11.30;;;22.70;71.70;;;;;;4934222;29;20493;-81
2021/06/09 08:55:14;;;;;;;15.88;12.77;;;22.70;72.30;;;;;;4936111;28;20160;-82
2021/06/09 08:57:40;;;;;;;11.95;10.57;;;22.70;71.90;;;;;;4922876;29;20086;-81
2021/06/09 09:00:08;;;;;;;16.73;11.32;;;22.70;72.80;;;;;;4952827;28;20493;-81
2021/06/09 09:02:34;;;;;;;14.32;12.80;;;22.70;73.10;;;;;;4954537;28;20047;-81
2021/06/09 09:05:06;;;;;;;13.18;11.77;;;22.80;72.60;;;;;;4946495;28;20054;-81
2021/06/09 09:07:32;;;;;;;13.40;11.15;;;22.80;71.70;;;;;;4941046;29;20114;-81
2021/06/09 09:09:58;;;;;;;14.05;11.90;;;22.90;70.50;;;;;;4946130;29;20126;-80
2021/06/09 09:12:31;;;;;;;;;;;22.90;70.20;;;;;;4933030;29;20154;-81
2021/06/09 09:14:59;;;;;;;14.02;11.23;;;22.90;71.80;;;;;;4947800;28;20448;-80
2021/06/09 09:17:25;;;;;;;15.98;11.13;;;22.90;70.60;;;;;;4931868;29;20071;-81
2021/06/09 09:19:51;;;;;;;13.98;11.60;;;23.00;70.20;;;;;;4930885;28;20058;-81
2021/06/09 09:22:30;;;;;;;14.98;12.00;;;23.00;69.80;;;;;;4935348;28;20045;-80
2021/06/09 09:24:56;;;;;;;15.73;11.32;;;23.10;69.90;;;;;;4919684;28;20078;-81
2021/06/09 09:27:29;;;;;;;16.02;12.32;;;23.10;70.50;;;;;;4938066;28;20046;-81
2021/06/09 09:30:01;;;;;;;14.98;12.23;;;23.20;70.50;;;;;;4919006;28;20262;-80
2021/06/09 09:32:27;;;;;;;13.75;11.57;;;23.30;69.20;;;;;;4920557;29;20054;-81
2021/06/09 09:35:13;;;;;;;12.68;10.07;;;23.30;69.20;;;;;;4918474;29;20549;-81
2021/06/09 09:37:38;;;;;;;11.60;9.82;;;23.30;69.20;;;;;;4951729;28;20047;-81
2021/06/09 09:40:15;;;;;;;14.05;10.32;;;23.20;68.20;;;;;;4933272;29;20465;-81
2021/06/09 09:42:43;;;;;;;11.90;9.70;;;23.10;67.70;;;;;;4947517;28;20039;-81
2021/06/09 09:45:18;;;;;;;11.68;10.50;;;23.10;68.20;;;;;;4949644;28;20035;-80
2021/06/09 09:48:04;;;;;;;13.60;10.90;;;23.10;68.00;;;;;;4942921;29;20031;-79
2021/06/09 09:50:36;;;;;;;11.02;9.93;;;23.10;68.50;;;;;;4934598;28;20035;-81
2021/06/09 09:53:24;;;;;;;14.63;11.38;;;23.10;68.40;;;;;;4929428;28;20044;-80
2021/06/09 09:56:07;;;;;;;12.82;10.23;;;23.10;67.20;;;;;;4931617;28;20079;-80
2021/06/09 09:58:53;;;;;;;10.77;9.68;;;23.10;66.40;;;;;;4926931;28;20103;-80
2021/06/09 10:01:23;;;;;;;13.57;10.18;;;23.20;66.20;;;;;;4931592;28;20126;-80
2021/06/09 10:03:51;;;;;;;15.38;9.93;;;23.20;66.40;;;;;;4927555;28;20031;-80
2021/06/09 10:06:18;;;;;;;13.43;10.43;;;23.20;65.60;;;;;;4940634;28;20187;-80
2021/06/09 10:08:44;;;;;;;13.75;11.50;;;23.20;65.90;;;;;;4930849;28;20039;-80
2021/06/09 10:11:12;;;;;;;13.63;10.63;;;23.30;65.40;;;;;;4934000;28;20035;-80
2021/06/09 10:13:41;;;;;;;11.60;10.50;;;23.30;66.30;;;;;;4929613;28;20051;-79
2021/06/09 10:16:29;;;;;;;15.13;9.88;;;23.30;66.10;;;;;;4933900;28;20106;-80
2021/06/09 10:19:00;;;;;;;12.85;9.68;;;23.40;66.80;;;;;;4933448;28;20058;-80
2021/06/09 10:21:28;;;;;;;11.77;9.15;;;23.40;65.60;;;;;;4933186;28;20046;-80
2021/06/09 10:24:09;;;;;;;10.45;9.45;;;23.40;66.70;;;;;;4935679;28;20039;-82
2021/06/09 10:26:45;;;;;;;11.15;9.77;;;23.50;65.20;;;;;;4929351;28;20036;-80
2021/06/09 10:29:17;;;;;;;14.05;10.77;;;23.50;65.10;;;;;;4914135;29;22775;-81
2021/06/09 10:31:57;;;;;;;11.38;10.20;;;23.50;64.30;;;;;;4934102;28;20055;-80
2021/06/09 10:34:31;;;;;;;11.93;9.35;;;23.50;64.50;;;;;;4948475;28;20538;-80
2021/06/09 10:37:06;;;;;;;12.38;10.77;;;23.50;63.30;;;;;;4945186;28;20035;-81
2021/06/09 10:39:35;;;;;;;11.60;9.85;;;23.60;62.80;;;;;;4941874;28;20193;-81
2021/06/09 10:42:13;;;;;;;10.65;9.55;;;23.60;63.10;;;;;;4949910;29;20371;-80
2021/06/09 10:44:44;;;;;;;13.05;10.50;;;23.70;63.90;;;;;;4930306;29;20130;-80
2021/06/09 10:47:26;;;;;;;12.63;10.82;;;23.70;63.10;;;;;;4936450;29;20047;-80
2021/06/09 10:49:52;;;;;;;12.13;10.35;;;23.80;63.30;;;;;;4939593;29;20039;-80
2021/06/09 10:52:18;;;;;;;12.13;10.80;;;23.80;63.60;;;;;;4928756;28;20399;-80
2021/06/09 10:54:45;;;;;;;12.55;11.23;;;23.80;64.10;;;;;;4934288;28;20039;-81
2021/06/09 10:57:11;;;;;;;15.38;11.55;;;23.90;63.50;;;;;;4940994;28;20478;-81
2021/06/09 10:59:38;;;;;;;15.10;11.70;;;23.90;62.60;;;;;;4927134;28;20171;-80
2021/06/09 11:02:20;;;;;;;13.95;10.77;;;23.90;62.60;;;;;;4929855;28;20846;-80
2021/06/09 11:04:51;;;;;;;14.43;11.68;;;24.00;64.10;;;;;;4941296;28;20044;-81
2021/06/09 11:07:29;;;;;;;14.25;11.70;;;24.10;64.30;;;;;;4930835;28;20092;-80
2021/06/09 11:10:07;;;;;;;15.70;11.90;;;24.20;62.90;;;;;;4917234;28;20055;-81
2021/06/09 11:12:49;;;;;;;14.00;11.45;;;24.20;62.10;;;;;;4916988;29;20039;-80
2021/06/09 11:15:22;;;;;;;12.03;10.90;;;24.20;63.00;;;;;;4930604;28;20290;-81
2021/06/09 11:17:53;;;;;;;15.13;11.80;;;24.30;62.60;;;;;;4929639;28;20040;-81
2021/06/09 11:20:26;;;;;;;15.52;12.07;;;24.40;62.10;;;;;;4916020;29;20744;-80
2021/06/09 11:23:03;;;;;;;12.18;10.80;;;24.30;63.10;;;;;;4928990;28;20118;-80
2021/06/09 11:25:31;;;;;;;14.20;12.07;;;24.30;63.40;;;;;;4929967;29;20399;-80
2021/06/09 11:28:07;;;;;;;14.88;13.25;;;24.30;62.40;;;;;;4930996;28;20332;-80
2021/06/09 11:30:37;;;;;;;12.88;11.57;;;24.30;63.20;;;;;;4923317;28;20031;-79
2021/06/09 11:33:05;;;;;;;14.18;12.57;;;24.30;64.40;;;;;;4938115;28;20043;-81
2021/06/09 11:35:49;;;;;;;14.73;11.93;;;24.40;63.30;;;;;;4921647;29;20455;-80
2021/06/09 11:38:21;;;;;;;14.57;13.05;;;24.40;63.50;;;;;;4932529;28;20039;-81
2021/06/09 11:41:05;;;;;;;14.17;12.67;;;24.40;62.30;;;;;;4934256;28;20041;-81
2021/06/09 11:43:55;;;;;;;17.13;13.25;;;24.30;61.80;;;;;;4940023;28;20041;-82
2021/06/09 11:46:29;;;;;;;14.70;12.90;;;24.30;63.00;;;;;;4939860;28;20055;-81
2021/06/09 11:49:08;;;;;;;15.67;13.80;;;24.30;62.80;;;;;;4934146;28;20217;-81
2021/06/09 11:51:44;;;;;;;18.70;14.65;;;24.40;62.10;;;;;;4931903;28;21970;-81
2021/06/09 11:54:16;;;;;;;15.32;13.73;;;24.50;62.00;;;;;;4936093;28;20092;-81
2021/06/09 11:56:48;;;;;;;15.77;13.63;;;24.60;62.30;;;;;;4940737;28;20032;-80
2021/06/09 11:59:40;;;;;;;16.75;13.68;;;24.70;61.40;;;;;;4936017;28;20163;-81
2021/06/09 12:02:09;;;;;;;17.38;14.23;;;24.90;61.40;;;;;;4925606;28;20098;-81
2021/06/09 12:04:40;;;;;;;16.35;14.68;;;25.00;61.00;;;;;;4942144;28;20031;-81
2021/06/09 12:07:07;;;;;;;15.52;13.82;;;25.00;60.40;;;;;;4938573;28;20050;-81
2021/06/09 12:09:59;;;;;;;16.50;14.80;;;25.10;60.40;;;;;;4943764;28;20035;-82
2021/06/09 12:12:27;;;;;;;16.45;14.20;;;25.20;60.60;;;;;;4927415;29;20043;-80
2021/06/09 12:15:00;;;;;;;16.90;14.25;;;25.30;60.30;;;;;;4950528;28;20055;-81
2021/06/09 12:17:31;;;;;;;20.45;17.30;;;25.30;60.30;;;;;;4960311;28;20035;-82
2021/06/09 12:20:00;;;;;;;18.07;15.77;;;25.40;59.80;;;;;;4913421;29;20048;-82
2021/06/09 12:22:32;;;;;;;17.38;15.13;;;25.50;59.60;;;;;;4944129;28;20306;-81
2021/06/09 12:25:08;;;;;;;19.50;16.95;;;25.50;60.20;;;;;;4936975;28;20061;-81
2021/06/09 12:27:37;;;;;;;19.58;16.95;;;25.50;60.00;;;;;;4927221;28;20032;-82
2021/06/09 12:30:09;;;;;;;17.75;15.95;;;25.50;58.80;;;;;;4938242;28;21250;-82
2021/06/09 12:32:41;;;;;;;16.42;14.77;;;25.50;58.10;;;;;;4953854;29;20050;-83
2021/06/09 12:35:10;;;;;;;18.70;15.95;;;25.50;59.80;;;;;;4957032;29;20031;-81
2021/06/09 12:37:44;;;;;;;17.67;15.77;;;25.60;60.00;;;;;;4954620;28;20027;-82
2021/06/09 12:40:19;;;;;;;18.42;16.25;;;25.80;59.30;;;;;;4971277;28;20063;-81
2021/06/09 12:43:06;;;;;;;16.77;14.43;;;25.90;57.20;;;;;;4950592;29;20038;-81
2021/06/09 12:45:34;;;;;;;15.57;13.77;;;25.90;58.00;;;;;;4945650;28;20083;-80
2021/06/09 12:48:09;;;;;;;16.58;14.02;;;26.00;57.50;;;;;;4935941;28;20049;-81
2021/06/09 12:50:41;;;;;;;17.30;15.38;;;26.00;57.40;;;;;;4940750;28;20491;-82
2021/06/09 12:53:27;;;;;;;22.15;15.32;;;26.10;57.50;;;;;;4912892;29;20067;-82